Springfield, Ohio
Current Conditions -  °F | °C
As of 12:56 AM on Monday 22 Dec 2014 (Local Time) from KSGH Reporting Station
Haze Haze  
Wind Chill: 16°   Ceiling: Unl
Heat Index: 25°   Visibility: 5mi
Dew Point: 23°   Wind: 8mph
Humidity: 91%   Direction: 120°ESE
Pressure: 30.11"   Gusts: NA
Location:  39.93°N, 83.81°W
Report Text: KSGH 220556Z AUTO 12007KT 5SM BR CLR M04/M05 A3011 RMK AO2 58016 T10381050 11027 21050 SLP208
Loading
Personal Weather Stations






























Interactive Weather Map New forecast layout! Learn more

10-Day Weather Forecast

Advertisements
Track Severe Weather on mobile